sensor_id;sensor_type;location;lat;lon;timestamp;temperature;humidity
12720;DHT22;6424;48.520;11.228;2022-12-18T00:02:15;-7.00;99.90
12720;DHT22;6424;48.520;11.228;2022-12-18T00:04:56;-7.00;99.90
12720;DHT22;6424;48.520;11.228;2022-12-18T00:07:37;-7.10;99.90
12720;DHT22;6424;48.520;11.228;2022-12-18T00:10:18;-7.10;99.90
12720;DHT22;6424;48.520;11.228;2022-12-18T00:12:59;-7.10;99.90
12720;DHT22;6424;48.520;11.228;2022-12-18T00:15:39;-7.10;99.90
12720;DHT22;6424;48.520;11.228;2022-12-18T00:18:20;-7.10;99.90
12720;DHT22;6424;48.520;11.228;2022-12-18T00:21:04;-7.10;99.90
12720;DHT22;6424;48.520;11.228;2022-12-18T00:23:46;-7.20;99.90
12720;DHT22;6424;48.520;11.228;2022-12-18T00:26:30;-7.10;99.90
12720;DHT22;6424;48.520;11.228;2022-12-18T00:29:13;-7.00;99.90
12720;DHT22;6424;48.520;11.228;2022-12-18T00:31:54;-7.00;99.90
12720;DHT22;6424;48.520;11.228;2022-12-18T00:34:35;-7.00;99.90
12720;DHT22;6424;48.520;11.228;2022-12-18T00:37:16;-7.00;99.90
12720;DHT22;6424;48.520;11.228;2022-12-18T00:39:42;-7.00;99.90
12720;DHT22;6424;48.520;11.228;2022-12-18T00:42:22;-7.00;99.90
12720;DHT22;6424;48.520;11.228;2022-12-18T00:45:23;-7.00;99.90
12720;DHT22;6424;48.520;11.228;2022-12-18T00:47:49;-7.00;99.90
12720;DHT22;6424;48.520;11.228;2022-12-18T00:50:30;-7.00;99.90
12720;DHT22;6424;48.520;11.228;2022-12-18T00:53:11;-6.90;99.90
12720;DHT22;6424;48.520;11.228;2022-12-18T00:55:39;-6.90;99.90
12720;DHT22;6424;48.520;11.228;2022-12-18T00:58:20;-6.90;99.90
12720;DHT22;6424;48.520;11.228;2022-12-18T01:01:00;-6.80;99.90
12720;DHT22;6424;48.520;11.228;2022-12-18T01:03:41;-6.80;99.90
12720;DHT22;6424;48.520;11.228;2022-12-18T01:06:22;-6.80;99.90
12720;DHT22;6424;48.520;11.228;2022-12-18T01:09:03;-6.80;99.90
12720;DHT22;6424;48.520;11.228;2022-12-18T01:11:44;-6.80;99.90
12720;DHT22;6424;48.520;11.228;2022-12-18T01:14:25;-6.70;99.90
12720;DHT22;6424;48.520;11.228;2022-12-18T01:17:06;-6.70;99.90
12720;DHT22;6424;48.520;11.228;2022-12-18T01:19:47;-6.70;99.90
12720;DHT22;6424;48.520;11.228;2022-12-18T01:22:12;-6.80;99.90
12720;DHT22;6424;48.520;11.228;2022-12-18T01:24:53;-6.80;99.90
12720;DHT22;6424;48.520;11.228;2022-12-18T01:27:34;-6.80;99.90
12720;DHT22;6424;48.520;11.228;2022-12-18T01:30:15;-6.70;99.90
12720;DHT22;6424;48.520;11.228;2022-12-18T01:32:56;-6.80;99.90
12720;DHT22;6424;48.520;11.228;2022-12-18T01:35:41;-6.70;99.90
12720;DHT22;6424;48.520;11.228;2022-12-18T01:38:07;-6.60;99.90
12720;DHT22;6424;48.520;11.228;2022-12-18T01:40:48;-6.60;99.90
12720;DHT22;6424;48.520;11.228;2022-12-18T01:44:01;-6.50;99.90
12720;DHT22;6424;48.520;11.228;2022-12-18T01:46:42;-6.40;99.90
12720;DHT22;6424;48.520;11.228;2022-12-18T01:49:23;-6.40;99.90
12720;DHT22;6424;48.520;11.228;2022-12-18T01:52:03;-6.40;99.90
12720;DHT22;6424;48.520;11.228;2022-12-18T01:54:45;-6.40;99.90
12720;DHT22;6424;48.520;11.228;2022-12-18T01:57:27;-6.40;99.90
12720;DHT22;6424;48.520;11.228;2022-12-18T01:59:57;-6.40;99.90
12720;DHT22;6424;48.520;11.228;2022-12-18T02:02:41;-6.40;99.90
12720;DHT22;6424;48.520;11.228;2022-12-18T02:09:10;-6.40;99.90
12720;DHT22;6424;48.520;11.228;2022-12-18T02:17:59;-6.30;99.90
12720;DHT22;6424;48.520;11.228;2022-12-18T02:20:35;-6.20;99.90
12720;DHT22;6424;48.520;11.228;2022-12-18T02:26:34;-6.20;99.90
12720;DHT22;6424;48.520;11.228;2022-12-18T02:29:26;-6.20;99.90
12720;DHT22;6424;48.520;11.228;2022-12-18T02:32:16;-6.20;99.90
12720;DHT22;6424;48.520;11.228;2022-12-18T02:35:01;-6.20;99.90
12720;DHT22;6424;48.520;11.228;2022-12-18T02:37:45;-6.10;99.90
12720;DHT22;6424;48.520;11.228;2022-12-18T02:40:14;-6.10;99.90
12720;DHT22;6424;48.520;11.228;2022-12-18T02:43:03;-6.10;99.90
12720;DHT22;6424;48.520;11.228;2022-12-18T02:45:49;-6.10;99.90
12720;DHT22;6424;48.520;11.228;2022-12-18T02:48:34;-6.10;99.90
12720;DHT22;6424;48.520;11.228;2022-12-18T02:51:25;-6.00;99.90
12720;DHT22;6424;48.520;11.228;2022-12-18T02:57:30;-6.00;99.90
12720;DHT22;6424;48.520;11.228;2022-12-18T03:00:06;-6.00;99.90
12720;DHT22;6424;48.520;11.228;2022-12-18T03:03:47;-6.00;99.90
12720;DHT22;6424;48.520;11.228;2022-12-18T03:08:47;-6.00;99.90
12720;DHT22;6424;48.520;11.228;2022-12-18T03:11:33;-5.90;99.90
12720;DHT22;6424;48.520;11.228;2022-12-18T03:14:37;-6.00;99.90
12720;DHT22;6424;48.520;11.228;2022-12-18T03:17:19;-5.90;99.90
12720;DHT22;6424;48.520;11.228;2022-12-18T03:20:06;-5.90;99.90
12720;DHT22;6424;48.520;11.228;2022-12-18T03:22:52;-5.90;99.90
12720;DHT22;6424;48.520;11.228;2022-12-18T03:25:35;-5.80;99.90
12720;DHT22;6424;48.520;11.228;2022-12-18T03:28:21;-5.90;99.90
12720;DHT22;6424;48.520;11.228;2022-12-18T03:31:05;-5.90;99.90
12720;DHT22;6424;48.520;11.228;2022-12-18T03:33:59;-5.90;99.90
12720;DHT22;6424;48.520;11.228;2022-12-18T03:36:41;-5.80;99.90
12720;DHT22;6424;48.520;11.228;2022-12-18T03:39:23;-5.80;99.90
12720;DHT22;6424;48.520;11.228;2022-12-18T03:42:27;-5.70;99.90
12720;DHT22;6424;48.520;11.228;2022-12-18T03:45:19;-5.80;99.90
12720;DHT22;6424;48.520;11.228;2022-12-18T03:48:08;-5.80;99.90
12720;DHT22;6424;48.520;11.228;2022-12-18T03:51:10;-5.70;99.90
12720;DHT22;6424;48.520;11.228;2022-12-18T03:56:42;-5.70;99.90
12720;DHT22;6424;48.520;11.228;2022-12-18T03:59:26;-5.60;99.90
12720;DHT22;6424;48.520;11.228;2022-12-18T04:02:08;-5.60;99.90
12720;DHT22;6424;48.520;11.228;2022-12-18T04:04:52;-5.70;99.90
12720;DHT22;6424;48.520;11.228;2022-12-18T04:07:34;-5.70;99.90
12720;DHT22;6424;48.520;11.228;2022-12-18T04:10:16;-5.70;99.90
12720;DHT22;6424;48.520;11.228;2022-12-18T04:12:57;-5.60;99.90
12720;DHT22;6424;48.520;11.228;2022-12-18T04:15:24;-5.60;99.90
12720;DHT22;6424;48.520;11.228;2022-12-18T04:18:04;-5.60;99.90
12720;DHT22;6424;48.520;11.228;2022-12-18T04:20:45;-5.60;99.90
12720;DHT22;6424;48.520;11.228;2022-12-18T04:23:26;-5.50;99.90
12720;DHT22;6424;48.520;11.228;2022-12-18T04:25:52;-5.50;99.90
12720;DHT22;6424;48.520;11.228;2022-12-18T04:28:33;-5.50;99.90
12720;DHT22;6424;48.520;11.228;2022-12-18T04:31:13;-5.60;99.90
12720;DHT22;6424;48.520;11.228;2022-12-18T04:33:54;-5.50;99.90
12720;DHT22;6424;48.520;11.228;2022-12-18T04:36:35;-5.50;99.90
12720;DHT22;6424;48.520;11.228;2022-12-18T04:39:17;-5.50;99.90
12720;DHT22;6424;48.520;11.228;2022-12-18T04:42:01;-5.40;99.90
12720;DHT22;6424;48.520;11.228;2022-12-18T04:44:42;-5.40;99.90
12720;DHT22;6424;48.520;11.228;2022-12-18T04:47:23;-5.30;99.90
12720;DHT22;6424;48.520;11.228;2022-12-18T04:50:04;-5.40;99.90
12720;DHT22;6424;48.520;11.228;2022-12-18T04:52:45;-5.40;99.90
12720;DHT22;6424;48.520;11.228;2022-12-18T04:55:26;-5.40;99.90
12720;DHT22;6424;48.520;11.228;2022-12-18T04:58:07;-5.40;99.90
12720;DHT22;6424;48.520;11.228;2022-12-18T05:00:48;-5.30;99.90
12720;DHT22;6424;48.520;11.228;2022-12-18T05:03:29;-5.30;99.90
12720;DHT22;6424;48.520;11.228;2022-12-18T05:06:10;-5.30;99.90
12720;DHT22;6424;48.520;11.228;2022-12-18T05:08:51;-5.30;99.90
12720;DHT22;6424;48.520;11.228;2022-12-18T05:11:31;-5.30;99.90
12720;DHT22;6424;48.520;11.228;2022-12-18T05:14:12;-5.30;99.90
12720;DHT22;6424;48.520;11.228;2022-12-18T05:16:53;-5.30;99.90
12720;DHT22;6424;48.520;11.228;2022-12-18T05:19:34;-5.30;99.90
12720;DHT22;6424;48.520;11.228;2022-12-18T05:22:15;-5.30;99.90
12720;DHT22;6424;48.520;11.228;2022-12-18T05:24:40;-5.20;99.90
12720;DHT22;6424;48.520;11.228;2022-12-18T05:27:21;-5.20;99.90
12720;DHT22;6424;48.520;11.228;2022-12-18T05:30:02;-5.20;99.90
12720;DHT22;6424;48.520;11.228;2022-12-18T05:32:43;-5.20;99.90
12720;DHT22;6424;48.520;11.228;2022-12-18T05:35:24;-5.20;99.90
12720;DHT22;6424;48.520;11.228;2022-12-18T05:38:04;-5.20;99.90
12720;DHT22;6424;48.520;11.228;2022-12-18T05:40:46;-5.20;99.90
12720;DHT22;6424;48.520;11.228;2022-12-18T05:43:28;-5.20;99.90
12720;DHT22;6424;48.520;11.228;2022-12-18T05:46:13;-5.10;99.90
12720;DHT22;6424;48.520;11.228;2022-12-18T05:48:54;-5.10;99.90
12720;DHT22;6424;48.520;11.228;2022-12-18T05:51:35;-5.10;99.90
12720;DHT22;6424;48.520;11.228;2022-12-18T05:54:01;-5.00;99.90
12720;DHT22;6424;48.520;11.228;2022-12-18T05:56:41;-5.00;99.90
12720;DHT22;6424;48.520;11.228;2022-12-18T05:59:07;-5.00;99.90
12720;DHT22;6424;48.520;11.228;2022-12-18T06:01:34;-5.00;99.90
12720;DHT22;6424;48.520;11.228;2022-12-18T06:04:14;-5.00;99.90
12720;DHT22;6424;48.520;11.228;2022-12-18T06:06:40;-5.00;99.90
12720;DHT22;6424;48.520;11.228;2022-12-18T06:09:21;-4.90;99.90
12720;DHT22;6424;48.520;11.228;2022-12-18T06:12:02;-4.90;99.90
12720;DHT22;6424;48.520;11.228;2022-12-18T06:14:43;-4.90;99.90
12720;DHT22;6424;48.520;11.228;2022-12-18T06:17:28;-4.90;99.90
12720;DHT22;6424;48.520;11.228;2022-12-18T06:20:10;-5.00;99.90
12720;DHT22;6424;48.520;11.228;2022-12-18T06:22:51;-4.90;99.90
12720;DHT22;6424;48.520;11.228;2022-12-18T06:25:32;-5.00;99.90
12720;DHT22;6424;48.520;11.228;2022-12-18T06:28:13;-4.90;99.90
12720;DHT22;6424;48.520;11.228;2022-12-18T06:30:54;-4.90;99.90
12720;DHT22;6424;48.520;11.228;2022-12-18T06:33:35;-5.00;99.90
12720;DHT22;6424;48.520;11.228;2022-12-18T06:36:16;-5.00;99.90
12720;DHT22;6424;48.520;11.228;2022-12-18T06:38:57;-5.00;99.90
12720;DHT22;6424;48.520;11.228;2022-12-18T06:41:38;-5.00;99.90
12720;DHT22;6424;48.520;11.228;2022-12-18T06:44:19;-5.00;99.90
12720;DHT22;6424;48.520;11.228;2022-12-18T06:47:00;-5.00;99.90
12720;DHT22;6424;48.520;11.228;2022-12-18T06:49:41;-5.00;99.90
12720;DHT22;6424;48.520;11.228;2022-12-18T06:52:21;-5.00;99.90
12720;DHT22;6424;48.520;11.228;2022-12-18T06:55:03;-4.90;99.90
12720;DHT22;6424;48.520;11.228;2022-12-18T06:57:43;-4.90;99.90
12720;DHT22;6424;48.520;11.228;2022-12-18T07:00:24;-4.90;99.90
12720;DHT22;6424;48.520;11.228;2022-12-18T07:03:05;-4.90;99.90
12720;DHT22;6424;48.520;11.228;2022-12-18T07:05:46;-4.90;99.90
12720;DHT22;6424;48.520;11.228;2022-12-18T07:08:26;-4.90;99.90
12720;DHT22;6424;48.520;11.228;2022-12-18T07:11:09;-4.90;99.90
12720;DHT22;6424;48.520;11.228;2022-12-18T07:13:49;-4.90;99.90
12720;DHT22;6424;48.520;11.228;2022-12-18T07:16:30;-5.00;99.90
12720;DHT22;6424;48.520;11.228;2022-12-18T07:19:11;-5.00;99.90
12720;DHT22;6424;48.520;11.228;2022-12-18T07:21:52;-5.00;99.90
12720;DHT22;6424;48.520;11.228;2022-12-18T07:24:33;-5.00;99.90
12720;DHT22;6424;48.520;11.228;2022-12-18T07:27:14;-5.00;99.90
12720;DHT22;6424;48.520;11.228;2022-12-18T07:29:55;-4.90;99.90
12720;DHT22;6424;48.520;11.228;2022-12-18T07:32:36;-4.90;99.90
12720;DHT22;6424;48.520;11.228;2022-12-18T07:35:17;-4.90;99.90
12720;DHT22;6424;48.520;11.228;2022-12-18T07:37:57;-4.90;99.90
12720;DHT22;6424;48.520;11.228;2022-12-18T07:40:38;-4.90;99.90
12720;DHT22;6424;48.520;11.228;2022-12-18T07:43:19;-5.00;99.90
12720;DHT22;6424;48.520;11.228;2022-12-18T07:46:00;-5.10;99.90
12720;DHT22;6424;48.520;11.228;2022-12-18T07:48:42;-5.10;99.90
12720;DHT22;6424;48.520;11.228;2022-12-18T07:51:23;-5.00;99.90
12720;DHT22;6424;48.520;11.228;2022-12-18T07:54:03;-5.00;99.90
12720;DHT22;6424;48.520;11.228;2022-12-18T07:56:45;-5.00;99.90
12720;DHT22;6424;48.520;11.228;2022-12-18T07:59:25;-5.00;99.90
12720;DHT22;6424;48.520;11.228;2022-12-18T08:02:06;-5.00;99.90
12720;DHT22;6424;48.520;11.228;2022-12-18T08:04:47;-5.00;99.90
12720;DHT22;6424;48.520;11.228;2022-12-18T08:07:28;-4.90;99.90
12720;DHT22;6424;48.520;11.228;2022-12-18T08:10:09;-4.90;99.90
12720;DHT22;6424;48.520;11.228;2022-12-18T08:12:50;-4.90;99.90
12720;DHT22;6424;48.520;11.228;2022-12-18T08:15:17;-4.80;99.90
12720;DHT22;6424;48.520;11.228;2022-12-18T08:17:57;-4.80;99.90
12720;DHT22;6424;48.520;11.228;2022-12-18T08:20:38;-4.80;99.90
12720;DHT22;6424;48.520;11.228;2022-12-18T08:23:19;-4.80;99.90
12720;DHT22;6424;48.520;11.228;2022-12-18T08:26:00;-4.80;99.90
12720;DHT22;6424;48.520;11.228;2022-12-18T08:28:41;-4.70;99.90
12720;DHT22;6424;48.520;11.228;2022-12-18T08:31:22;-4.60;99.90
12720;DHT22;6424;48.520;11.228;2022-12-18T08:34:03;-4.60;99.90
12720;DHT22;6424;48.520;11.228;2022-12-18T08:36:44;-4.60;99.90
12720;DHT22;6424;48.520;11.228;2022-12-18T08:39:25;-4.50;99.90
12720;DHT22;6424;48.520;11.228;2022-12-18T08:41:50;-4.50;99.90
12720;DHT22;6424;48.520;11.228;2022-12-18T08:44:50;-4.50;99.90
12720;DHT22;6424;48.520;11.228;2022-12-18T08:47:30;-4.40;99.90
12720;DHT22;6424;48.520;11.228;2022-12-18T08:50:11;-4.40;99.90
12720;DHT22;6424;48.520;11.228;2022-12-18T08:52:52;-4.50;99.90
12720;DHT22;6424;48.520;11.228;2022-12-18T08:55:18;-4.60;99.90
12720;DHT22;6424;48.520;11.228;2022-12-18T08:57:59;-4.60;99.90
12720;DHT22;6424;48.520;11.228;2022-12-18T09:00:40;-4.60;99.90
12720;DHT22;6424;48.520;11.228;2022-12-18T09:03:20;-4.70;99.90
12720;DHT22;6424;48.520;11.228;2022-12-18T09:06:03;-4.60;99.90
12720;DHT22;6424;48.520;11.228;2022-12-18T09:08:44;-4.60;99.90
12720;DHT22;6424;48.520;11.228;2022-12-18T09:11:27;-4.60;99.90
12720;DHT22;6424;48.520;11.228;2022-12-18T09:14:09;-4.60;99.90
12720;DHT22;6424;48.520;11.228;2022-12-18T09:16:35;-4.60;99.90
12720;DHT22;6424;48.520;11.228;2022-12-18T09:19:16;-4.50;99.90
12720;DHT22;6424;48.520;11.228;2022-12-18T09:21:42;-4.50;99.90
12720;DHT22;6424;48.520;11.228;2022-12-18T09:24:22;-4.50;99.90
12720;DHT22;6424;48.520;11.228;2022-12-18T09:27:03;-4.50;99.90
12720;DHT22;6424;48.520;11.228;2022-12-18T09:29:44;-4.40;99.90
12720;DHT22;6424;48.520;11.228;2022-12-18T09:32:25;-4.40;99.90
12720;DHT22;6424;48.520;11.228;2022-12-18T09:35:05;-4.40;99.90
12720;DHT22;6424;48.520;11.228;2022-12-18T09:37:46;-4.40;99.90
12720;DHT22;6424;48.520;11.228;2022-12-18T09:40:35;-4.50;99.90
12720;DHT22;6424;48.520;11.228;2022-12-18T09:43:04;-4.50;99.90
12720;DHT22;6424;48.520;11.228;2022-12-18T09:45:49;-4.40;99.90
12720;DHT22;6424;48.520;11.228;2022-12-18T09:48:35;-4.40;99.90
12720;DHT22;6424;48.520;11.228;2022-12-18T09:51:30;-4.40;99.90
12720;DHT22;6424;48.520;11.228;2022-12-18T09:54:22;-4.40;99.90
12720;DHT22;6424;48.520;11.228;2022-12-18T09:57:04;-4.60;99.90
12720;DHT22;6424;48.520;11.228;2022-12-18T09:59:59;-4.60;99.90
12720;DHT22;6424;48.520;11.228;2022-12-18T10:02:42;-4.50;99.90
12720;DHT22;6424;48.520;11.228;2022-12-18T10:26:33;-4.10;99.90
12720;DHT22;6424;48.520;11.228;2022-12-18T10:29:16;-4.10;99.90
12720;DHT22;6424;48.520;11.228;2022-12-18T10:31:57;-4.10;99.90
12720;DHT22;6424;48.520;11.228;2022-12-18T10:34:38;-4.00;99.90
12720;DHT22;6424;48.520;11.228;2022-12-18T10:37:21;-3.90;99.90
12720;DHT22;6424;48.520;11.228;2022-12-18T10:43:04;-3.70;99.90
12720;DHT22;6424;48.520;11.228;2022-12-18T10:46:02;-3.60;99.90
12720;DHT22;6424;48.520;11.228;2022-12-18T10:48:55;-3.60;99.90
12720;DHT22;6424;48.520;11.228;2022-12-18T10:51:37;-3.60;99.90
12720;DHT22;6424;48.520;11.228;2022-12-18T10:54:21;-3.70;99.90
12720;DHT22;6424;48.520;11.228;2022-12-18T10:57:17;-3.90;99.90
12720;DHT22;6424;48.520;11.228;2022-12-18T11:00:28;-3.80;99.90
12720;DHT22;6424;48.520;11.228;2022-12-18T11:03:34;-3.80;99.90
12720;DHT22;6424;48.520;11.228;2022-12-18T11:06:21;-3.70;99.90
12720;DHT22;6424;48.520;11.228;2022-12-18T11:09:22;-3.70;99.90
12720;DHT22;6424;48.520;11.228;2022-12-18T11:12:25;-3.60;99.90
12720;DHT22;6424;48.520;11.228;2022-12-18T11:15:06;-3.60;99.90
12720;DHT22;6424;48.520;11.228;2022-12-18T11:17:50;-3.60;99.90
12720;DHT22;6424;48.520;11.228;2022-12-18T11:20:33;-3.60;99.90
12720;DHT22;6424;48.520;11.228;2022-12-18T11:23:15;-3.70;99.90
12720;DHT22;6424;48.520;11.228;2022-12-18T11:25:58;-3.70;99.90
12720;DHT22;6424;48.520;11.228;2022-12-18T11:28:43;-3.60;99.90
12720;DHT22;6424;48.520;11.228;2022-12-18T11:31:28;-3.50;99.90
12720;DHT22;6424;48.520;11.228;2022-12-18T11:34:29;-3.50;99.90
12720;DHT22;6424;48.520;11.228;2022-12-18T11:37:12;-3.50;99.90
12720;DHT22;6424;48.520;11.228;2022-12-18T11:40:01;-3.40;99.90
12720;DHT22;6424;48.520;11.228;2022-12-18T11:46:07;-3.30;99.90
12720;DHT22;6424;48.520;11.228;2022-12-18T11:48:47;-3.20;99.90
12720;DHT22;6424;48.520;11.228;2022-12-18T11:51:45;-3.20;99.90
12720;DHT22;6424;48.520;11.228;2022-12-18T11:54:27;-3.20;99.90
12720;DHT22;6424;48.520;11.228;2022-12-18T11:57:20;-3.20;99.90
12720;DHT22;6424;48.520;11.228;2022-12-18T12:12:10;-3.50;99.90
12720;DHT22;6424;48.520;11.228;2022-12-18T12:15:09;-3.70;99.90
12720;DHT22;6424;48.520;11.228;2022-12-18T12:26:42;-3.80;99.90
12720;DHT22;6424;48.520;11.228;2022-12-18T12:40:37;-3.60;99.90
12720;DHT22;6424;48.520;11.228;2022-12-18T12:43:22;-3.50;99.90
12720;DHT22;6424;48.520;11.228;2022-12-18T12:46:07;-3.50;99.90
12720;DHT22;6424;48.520;11.228;2022-12-18T12:48:56;-3.50;99.90
12720;DHT22;6424;48.520;11.228;2022-12-18T12:51:41;-3.40;99.90
12720;DHT22;6424;48.520;11.228;2022-12-18T12:54:25;-3.40;99.90
12720;DHT22;6424;48.520;11.228;2022-12-18T12:57:21;-3.40;99.90
12720;DHT22;6424;48.520;11.228;2022-12-18T13:00:13;-3.30;99.90
12720;DHT22;6424;48.520;11.228;2022-12-18T13:05:58;-3.20;99.90
12720;DHT22;6424;48.520;11.228;2022-12-18T13:08:57;-3.20;99.90
12720;DHT22;6424;48.520;11.228;2022-12-18T13:11:39;-3.30;99.90
12720;DHT22;6424;48.520;11.228;2022-12-18T13:14:40;-3.20;99.90
12720;DHT22;6424;48.520;11.228;2022-12-18T13:17:24;-3.20;99.90
12720;DHT22;6424;48.520;11.228;2022-12-18T13:20:11;-3.10;99.90
12720;DHT22;6424;48.520;11.228;2022-12-18T13:22:52;-3.10;99.90
12720;DHT22;6424;48.520;11.228;2022-12-18T13:25:37;-3.20;99.90
12720;DHT22;6424;48.520;11.228;2022-12-18T13:31:07;-3.30;99.90
12720;DHT22;6424;48.520;11.228;2022-12-18T13:33:48;-3.30;99.90
12720;DHT22;6424;48.520;11.228;2022-12-18T13:36:31;-3.30;99.90
12720;DHT22;6424;48.520;11.228;2022-12-18T13:44:36;-3.50;99.90
12720;DHT22;6424;48.520;11.228;2022-12-18T13:47:37;-3.50;99.90
12720;DHT22;6424;48.520;11.228;2022-12-18T13:50:25;-3.60;99.90
12720;DHT22;6424;48.520;11.228;2022-12-18T13:52:52;-3.60;99.90
12720;DHT22;6424;48.520;11.228;2022-12-18T13:55:33;-3.50;99.90
12720;DHT22;6424;48.520;11.228;2022-12-18T13:58:04;-3.60;99.90
12720;DHT22;6424;48.520;11.228;2022-12-18T14:00:46;-3.70;99.90
12720;DHT22;6424;48.520;11.228;2022-12-18T14:03:21;-3.70;99.90
12720;DHT22;6424;48.520;11.228;2022-12-18T14:06:06;-3.80;99.90
12720;DHT22;6424;48.520;11.228;2022-12-18T14:08:48;-3.80;99.90
12720;DHT22;6424;48.520;11.228;2022-12-18T14:11:29;-3.90;99.90
12720;DHT22;6424;48.520;11.228;2022-12-18T14:14:16;-3.90;99.90
12720;DHT22;6424;48.520;11.228;2022-12-18T14:16:59;-3.90;99.90
12720;DHT22;6424;48.520;11.228;2022-12-18T14:19:44;-3.90;99.90
12720;DHT22;6424;48.520;11.228;2022-12-18T14:22:26;-3.90;99.90
12720;DHT22;6424;48.520;11.228;2022-12-18T14:28:14;-4.00;99.90
12720;DHT22;6424;48.520;11.228;2022-12-18T14:30:55;-3.90;99.90
12720;DHT22;6424;48.520;11.228;2022-12-18T14:33:38;-3.90;99.90
12720;DHT22;6424;48.520;11.228;2022-12-18T14:36:25;-4.00;99.90
12720;DHT22;6424;48.520;11.228;2022-12-18T14:39:17;-4.00;99.90
12720;DHT22;6424;48.520;11.228;2022-12-18T14:41:57;-4.00;99.90
12720;DHT22;6424;48.520;11.228;2022-12-18T14:44:38;-4.10;99.90
12720;DHT22;6424;48.520;11.228;2022-12-18T14:47:20;-4.00;99.90
12720;DHT22;6424;48.520;11.228;2022-12-18T14:50:00;-4.00;99.90
12720;DHT22;6424;48.520;11.228;2022-12-18T14:52:41;-4.00;99.90
12720;DHT22;6424;48.520;11.228;2022-12-18T14:55:18;-4.20;99.90
12720;DHT22;6424;48.520;11.228;2022-12-18T14:57:59;-4.20;99.90
12720;DHT22;6424;48.520;11.228;2022-12-18T15:00:42;-4.30;99.90
12720;DHT22;6424;48.520;11.228;2022-12-18T15:03:23;-4.40;99.90
12720;DHT22;6424;48.520;11.228;2022-12-18T15:09:24;-4.40;99.90
12720;DHT22;6424;48.520;11.228;2022-12-18T15:12:33;-4.40;99.90
12720;DHT22;6424;48.520;11.228;2022-12-18T15:18:18;-4.50;99.90
12720;DHT22;6424;48.520;11.228;2022-12-18T15:21:09;-4.60;99.90
12720;DHT22;6424;48.520;11.228;2022-12-18T15:23:51;-4.60;99.90
12720;DHT22;6424;48.520;11.228;2022-12-18T15:26:37;-4.60;99.90
12720;DHT22;6424;48.520;11.228;2022-12-18T15:29:22;-4.70;99.90
12720;DHT22;6424;48.520;11.228;2022-12-18T15:32:18;-4.70;99.90
12720;DHT22;6424;48.520;11.228;2022-12-18T15:37:52;-4.80;99.90
12720;DHT22;6424;48.520;11.228;2022-12-18T15:40:33;-4.80;99.90
12720;DHT22;6424;48.520;11.228;2022-12-18T15:43:13;-4.80;99.90
12720;DHT22;6424;48.520;11.228;2022-12-18T15:46:15;-4.90;99.90
12720;DHT22;6424;48.520;11.228;2022-12-18T15:48:57;-4.90;99.90
12720;DHT22;6424;48.520;11.228;2022-12-18T15:51:26;-5.00;99.90
12720;DHT22;6424;48.520;11.228;2022-12-18T15:54:12;-4.90;99.90
12720;DHT22;6424;48.520;11.228;2022-12-18T15:56:53;-4.90;99.90
12720;DHT22;6424;48.520;11.228;2022-12-18T15:59:54;-4.90;99.90
12720;DHT22;6424;48.520;11.228;2022-12-18T16:02:36;-4.90;99.90
12720;DHT22;6424;48.520;11.228;2022-12-18T16:05:19;-4.90;99.90
12720;DHT22;6424;48.520;11.228;2022-12-18T16:07:46;-4.90;99.90
12720;DHT22;6424;48.520;11.228;2022-12-18T16:10:27;-4.90;99.90
12720;DHT22;6424;48.520;11.228;2022-12-18T16:13:13;-4.90;99.90
12720;DHT22;6424;48.520;11.228;2022-12-18T16:15:56;-4.90;99.90
12720;DHT22;6424;48.520;11.228;2022-12-18T16:18:37;-4.90;99.90
12720;DHT22;6424;48.520;11.228;2022-12-18T16:21:17;-4.80;99.90
12720;DHT22;6424;48.520;11.228;2022-12-18T16:23:58;-4.80;99.90
12720;DHT22;6424;48.520;11.228;2022-12-18T16:26:39;-4.80;99.90
12720;DHT22;6424;48.520;11.228;2022-12-18T16:29:22;-4.90;99.90
12720;DHT22;6424;48.520;11.228;2022-12-18T16:32:12;-4.90;99.90
12720;DHT22;6424;48.520;11.228;2022-12-18T16:34:59;-4.90;99.90
12720;DHT22;6424;48.520;11.228;2022-12-18T16:37:41;-4.90;99.90
12720;DHT22;6424;48.520;11.228;2022-12-18T16:40:22;-4.80;99.90
12720;DHT22;6424;48.520;11.228;2022-12-18T16:43:02;-4.80;99.90
12720;DHT22;6424;48.520;11.228;2022-12-18T16:45:43;-4.80;99.90
12720;DHT22;6424;48.520;11.228;2022-12-18T16:48:24;-4.80;99.90
12720;DHT22;6424;48.520;11.228;2022-12-18T16:51:05;-4.90;99.90
12720;DHT22;6424;48.520;11.228;2022-12-18T16:53:46;-4.80;99.90
12720;DHT22;6424;48.520;11.228;2022-12-18T16:56:11;-4.80;99.90
12720;DHT22;6424;48.520;11.228;2022-12-18T16:58:53;-4.90;99.90
12720;DHT22;6424;48.520;11.228;2022-12-18T17:01:34;-4.90;99.90
12720;DHT22;6424;48.520;11.228;2022-12-18T17:04:16;-4.90;99.90
12720;DHT22;6424;48.520;11.228;2022-12-18T17:06:56;-4.80;99.90
12720;DHT22;6424;48.520;11.228;2022-12-18T17:09:38;-4.90;99.90
12720;DHT22;6424;48.520;11.228;2022-12-18T17:12:19;-4.80;99.90
12720;DHT22;6424;48.520;11.228;2022-12-18T17:15:00;-4.90;99.90
12720;DHT22;6424;48.520;11.228;2022-12-18T17:17:41;-4.90;99.90
12720;DHT22;6424;48.520;11.228;2022-12-18T17:20:07;-4.80;99.90
12720;DHT22;6424;48.520;11.228;2022-12-18T17:22:48;-4.80;99.90
12720;DHT22;6424;48.520;11.228;2022-12-18T17:25:28;-4.80;99.90
12720;DHT22;6424;48.520;11.228;2022-12-18T17:28:09;-4.80;99.90
12720;DHT22;6424;48.520;11.228;2022-12-18T17:30:52;-4.80;99.90
12720;DHT22;6424;48.520;11.228;2022-12-18T17:33:34;-4.80;99.90
12720;DHT22;6424;48.520;11.228;2022-12-18T17:36:15;-4.80;99.90
12720;DHT22;6424;48.520;11.228;2022-12-18T17:38:58;-4.80;99.90
12720;DHT22;6424;48.520;11.228;2022-12-18T17:41:39;-4.90;99.90
12720;DHT22;6424;48.520;11.228;2022-12-18T17:44:20;-4.90;99.90
12720;DHT22;6424;48.520;11.228;2022-12-18T17:47:01;-4.90;99.90
12720;DHT22;6424;48.520;11.228;2022-12-18T17:49:42;-4.90;99.90
12720;DHT22;6424;48.520;11.228;2022-12-18T17:52:22;-4.90;99.90
12720;DHT22;6424;48.520;11.228;2022-12-18T17:55:03;-4.90;99.90
12720;DHT22;6424;48.520;11.228;2022-12-18T17:57:44;-4.90;99.90
12720;DHT22;6424;48.520;11.228;2022-12-18T18:00:25;-4.90;99.90
12720;DHT22;6424;48.520;11.228;2022-12-18T18:03:06;-5.00;99.90
12720;DHT22;6424;48.520;11.228;2022-12-18T18:05:48;-5.00;99.90
12720;DHT22;6424;48.520;11.228;2022-12-18T18:08:28;-5.00;99.90
12720;DHT22;6424;48.520;11.228;2022-12-18T18:11:14;-5.10;99.90
12720;DHT22;6424;48.520;11.228;2022-12-18T18:14:16;-5.10;99.90
12720;DHT22;6424;48.520;11.228;2022-12-18T18:16:57;-5.10;99.90
12720;DHT22;6424;48.520;11.228;2022-12-18T18:19:38;-5.00;99.90
12720;DHT22;6424;48.520;11.228;2022-12-18T18:22:18;-5.00;99.90
12720;DHT22;6424;48.520;11.228;2022-12-18T18:24:59;-5.00;99.90
12720;DHT22;6424;48.520;11.228;2022-12-18T18:27:41;-5.10;99.90
12720;DHT22;6424;48.520;11.228;2022-12-18T18:30:22;-5.10;99.90
12720;DHT22;6424;48.520;11.228;2022-12-18T18:33:03;-5.10;99.90
12720;DHT22;6424;48.520;11.228;2022-12-18T18:35:43;-5.20;99.90
12720;DHT22;6424;48.520;11.228;2022-12-18T18:38:25;-5.20;99.90
12720;DHT22;6424;48.520;11.228;2022-12-18T18:41:06;-5.20;99.90
12720;DHT22;6424;48.520;11.228;2022-12-18T18:43:47;-5.20;99.90
12720;DHT22;6424;48.520;11.228;2022-12-18T18:46:28;-5.20;99.90
12720;DHT22;6424;48.520;11.228;2022-12-18T18:49:09;-5.20;99.90
12720;DHT22;6424;48.520;11.228;2022-12-18T18:51:50;-5.30;99.90